Time;durP1;ratioP1;P1;durP2;ratioP2;P2;SDS_P1;SDS_P2;PMS_P1;PMS_P2;Temp;Humidity;BMP_temperature;BMP_pressure;BME280_temperature;BME280_humidity;BME280_pressure;Samples;Min_cycle;Max_cycle;Signal;HPM_P1;HPM_P2
2022/06/24 00:01:57;;;;;;;7.27;6.73;;;;;;;22.79;81.21;66611.66;5103077;28;20247;-73
2022/06/24 00:04:28;;;;;;;8.30;7.90;;;;;;;22.75;81.64;66607.72;5117111;28;20169;-73
2022/06/24 00:06:56;;;;;;;9.50;6.87;;;;;;;22.73;82.28;66610.78;5100195;28;20197;-73
2022/06/24 00:09:27;;;;;;;7.00;6.80;;;;;;;;;;5096682;28;20247;-73
2022/06/24 00:12:10;;;;;;;7.00;6.80;;;;;;;22.70;83.26;66601.56;5096562;28;20233;-73
2022/06/24 00:14:40;;;;;;;8.13;7.20;;;;;;;22.71;83.39;66603.25;5097119;28;20208;-73
2022/06/24 00:17:13;;;;;;;6.90;6.40;;;;;;;22.73;83.67;66604.94;5096071;28;20239;-73
2022/06/24 00:19:54;;;;;;;7.60;7.30;;;;;;;22.76;83.64;66608.84;5095557;28;20273;-72
2022/06/24 00:22:23;;;;;;;8.63;7.93;;;;;;;22.79;83.81;66614.31;5100648;28;20255;-72
2022/06/24 00:25:06;;;;;;;7.90;7.30;;;;;;;22.89;83.14;66627.63;5114795;28;20546;-73
2022/06/24 00:27:33;;;;;;;9.47;7.87;;;;;;;22.86;83.31;66619.53;5117119;28;20545;-72
2022/06/24 00:30:07;;;;;;;8.73;7.13;;;;;;;22.86;83.15;66618.94;5096135;28;20220;-73
2022/06/24 00:32:33;;;;;;;8.37;7.47;;;;;;;22.84;83.45;66617.25;5095910;28;20578;-73
2022/06/24 00:35:14;;;;;;;7.57;7.27;;;;;;;22.82;83.06;66619.75;5095864;28;20205;-73
2022/06/24 00:37:42;;;;;;;7.20;6.97;;;;;;;22.83;82.91;66615.56;5096675;28;20182;-74
2022/06/24 00:40:09;;;;;;;8.20;7.90;;;;;;;22.79;82.82;66612.22;5096046;28;20182;-74
2022/06/24 00:42:42;;;;;;;10.33;6.93;;;;;;;22.77;82.85;66609.41;5103218;28;20212;-72
2022/06/24 00:45:17;;;;;;;7.97;7.37;;;;;;;22.74;83.26;66603.97;5095989;28;20217;-73
2022/06/24 00:47:46;;;;;;;6.87;6.53;;;;;;;22.75;82.97;66607.16;5095642;28;20220;-73
2022/06/24 00:50:23;;;;;;;7.23;6.77;;;;;;;22.75;83.16;66607.72;5095835;28;20201;-73
2022/06/24 00:52:55;;;;;;;7.70;6.97;;;;;;;22.73;83.81;66604.94;5095953;28;20585;-73
2022/06/24 00:55:26;;;;;;;7.60;7.30;;;;;;;22.74;84.56;66606.63;5096429;28;20537;-73
2022/06/24 00:57:52;;;;;;;7.73;7.33;;;;;;;22.76;84.49;66610.94;5099155;28;20173;-73
2022/06/24 01:00:19;;;;;;;9.70;7.23;;;;;;;22.69;84.64;66601.00;5099751;28;20280;-73
2022/06/24 01:02:47;;;;;;;11.60;7.80;;;;;;;22.71;85.02;66602.69;5114138;28;20270;-73
2022/06/24 01:05:17;;;;;;;8.73;7.93;;;;;;;22.72;84.50;66601.72;5115926;28;20184;-73
2022/06/24 01:07:43;;;;;;;8.00;7.50;;;;;;;22.83;83.22;66615.56;5114991;28;20193;-74
2022/06/24 01:10:10;;;;;;;9.10;8.40;;;;;;;22.88;82.66;66626.50;5115071;28;20189;-73
2022/06/24 01:12:37;;;;;;;10.27;8.07;;;;;;;22.93;82.37;66626.78;5098764;28;20632;-72
2022/06/24 01:15:04;;;;;;;8.33;7.50;;;;;;;;;;5107132;28;20188;-73
2022/06/24 01:17:31;;;;;;;9.07;8.33;;;;;;;23.04;82.04;66641.75;5101162;28;20202;-74
2022/06/24 01:19:57;;;;;;;8.83;8.37;;;;;;;23.06;82.29;66639.25;5095567;28;20186;-73
2022/06/24 01:22:25;;;;;;;18.43;8.83;;;;;;;23.00;85.92;66635.22;5100658;28;20740;-73
2022/06/24 01:24:54;;;;;;;15.70;8.60;;;;;;;22.92;88.17;66626.22;5115551;28;20190;-73
2022/06/24 01:27:20;;;;;;;19.37;8.47;;;;;;;22.73;89.90;66610.22;5095714;28;20221;-73
2022/06/24 01:29:47;;;;;;;13.67;8.73;;;;;;;22.74;90.77;66606.63;5095940;28;20190;-74
2022/06/24 01:32:13;;;;;;;16.00;8.83;;;;;;;22.64;92.88;66600.13;5094431;28;20218;-73
2022/06/24 01:34:40;;;;;;;14.67;9.00;;;;;;;22.61;93.92;66592.03;5095071;28;20218;-74
2022/06/24 01:37:06;;;;;;;17.33;10.67;;;;;;;22.42;96.57;66570.75;5094941;28;20186;-73
2022/06/24 01:39:33;;;;;;;13.70;9.47;;;;;;;22.29;97.96;66554.13;5094905;28;20198;-74
2022/06/24 01:41:59;;;;;;;12.07;10.97;;;;;;;22.09;99.74;66537.59;5094728;28;20683;-73
2022/06/24 01:44:26;;;;;;;15.03;10.70;;;;;;;22.16;100.00;66542.78;5094561;28;20182;-74
2022/06/24 01:46:52;;;;;;;11.47;10.43;;;;;;;22.03;100.00;66527.66;5095080;28;20231;-73
2022/06/24 01:49:19;;;;;;;21.20;10.93;;;;;;;21.97;100.00;66518.84;5095250;28;20239;-74
2022/06/24 01:51:49;;;;;;;11.90;11.00;;;;;;;21.85;100.00;66505.41;5095373;28;20271;-73
2022/06/24 01:54:15;;;;;;;13.40;12.03;;;;;;;;;;5104064;28;20243;-74
2022/06/24 01:56:42;;;;;;;14.40;11.10;;;;;;;21.75;100.00;66496.84;5115272;28;20515;-74
2022/06/24 01:59:14;;;;;;;18.20;11.60;;;;;;;21.67;100.00;66489.03;5092580;28;20198;-74
2022/06/24 02:01:41;;;;;;;16.87;13.23;;;;;;;;;;5094894;28;20216;-73
2022/06/24 02:04:08;;;;;;;19.63;12.53;;;;;;;;;;5093975;28;20655;-73
2022/06/24 02:06:35;;;;;;;19.03;13.27;;;;;;;21.67;100.00;66486.38;5094149;28;20202;-73
2022/06/24 02:09:02;;;;;;;14.10;12.80;;;;;;;21.72;100.00;66494.06;5094364;28;20198;-73
2022/06/24 02:14:14;;;;;;;16.00;13.20;;;;;;;;;;5094305;28;20197;-74
2022/06/24 02:16:41;;;;;;;20.30;13.27;;;;;;;21.49;100.00;66468.88;5076024;28;20236;-74
2022/06/24 02:19:08;;;;;;;19.57;13.90;;;;;;;21.49;100.00;66465.66;5093484;28;20225;-73
2022/06/24 02:21:35;;;;;;;18.50;14.17;;;;;;;21.23;100.00;66439.78;5093617;28;20618;-73
2022/06/24 02:24:02;;;;;;;16.90;13.13;;;;;;;;;;5094073;28;20190;-73
2022/06/24 02:26:29;;;;;;;16.00;14.40;;;;;;;21.20;100.00;66439.59;5094042;28;20217;-74
2022/06/24 02:28:56;;;;;;;21.93;13.53;;;;;;;21.11;100.00;66426.91;5095355;28;20220;-74
2022/06/24 02:31:23;;;;;;;18.13;13.03;;;;;;;21.06;100.00;66426.59;5093817;28;20213;-73
2022/06/24 02:33:49;;;;;;;17.47;14.43;;;;;;;20.97;100.00;66411.25;5093778;28;20605;-73
2022/06/24 02:36:16;;;;;;;22.90;13.20;;;;;;;20.97;100.00;66408.59;5093871;28;20197;-73
2022/06/24 02:38:42;;;;;;;18.90;13.30;;;;;;;20.98;100.00;66415.56;5094099;28;20302;-74
2022/06/24 02:41:11;;;;;;;16.13;13.07;;;;;;;20.89;100.00;66400.22;5093420;28;20225;-72
2022/06/24 02:43:41;;;;;;;17.40;12.23;;;;;;;20.82;100.00;66397.66;5111902;28;20193;-73
2022/06/24 02:46:10;;;;;;;14.17;12.13;;;;;;;20.86;100.00;66402.69;5114348;28;20602;-73
2022/06/24 02:48:38;;;;;;;12.17;10.93;;;;;;;;;;5114269;28;20185;-73
2022/06/24 02:51:10;;;;;;;13.37;10.47;;;;;;;20.70;100.00;66384.78;5113870;28;20185;-74
2022/06/24 02:53:37;;;;;;;11.20;10.30;;;;;;;20.68;100.00;66379.38;5097659;28;20192;-73
2022/06/24 02:56:06;;;;;;;11.50;9.97;;;;;;;20.66;100.00;66377.13;5093836;28;20656;-73
2022/06/24 02:58:33;;;;;;;10.60;9.83;;;;;;;20.69;100.00;66381.03;5099045;28;20193;-73
2022/06/24 03:01:00;;;;;;;11.27;10.30;;;;;;;20.64;100.00;66375.44;5093818;28;20182;-74
2022/06/24 03:03:28;;;;;;;11.80;10.00;;;;;;;20.67;100.00;66378.25;5092959;28;20213;-74
2022/06/24 03:05:55;;;;;;;12.00;10.77;;;;;;;20.57;100.00;66373.47;5093726;28;20196;-74
2022/06/24 03:08:23;;;;;;;11.77;10.63;;;;;;;20.60;100.00;66368.91;5093367;28;20236;-74
2022/06/24 03:10:50;;;;;;;11.43;9.93;;;;;;;20.58;100.00;66369.31;5093402;28;20664;-74
2022/06/24 03:13:17;;;;;;;13.70;11.07;;;;;;;20.53;100.00;66365.78;5093576;28;20271;-74
2022/06/24 03:15:45;;;;;;;16.80;11.17;;;;;;;20.48;100.00;66358.13;5093074;28;20276;-73
2022/06/24 03:18:11;;;;;;;14.57;10.87;;;;;;;20.51;100.00;66361.47;5093320;28;20204;-73
2022/06/24 03:20:38;;;;;;;11.53;10.43;;;;;;;20.55;100.00;66362.75;5093581;28;20517;-74
2022/06/24 03:23:11;;;;;;;18.37;10.77;;;;;;;20.48;100.00;66360.19;5092383;28;20309;-74
2022/06/24 03:25:37;;;;;;;11.93;10.77;;;;;;;20.49;100.00;66358.66;5093504;28;20736;-74
2022/06/24 03:28:04;;;;;;;10.93;10.07;;;;;;;20.58;100.00;66366.13;5096128;28;20228;-74
2022/06/24 03:30:32;;;;;;;14.37;11.87;;;;;;;20.52;100.00;66362.59;5092589;28;20190;-73
2022/06/24 03:33:00;;;;;;;11.13;10.53;;;;;;;20.56;100.00;66367.06;5092816;28;20275;-73
2022/06/24 03:35:27;;;;;;;12.57;11.43;;;;;;;20.60;100.00;66373.63;5092270;28;20265;-73
2022/06/24 03:37:53;;;;;;;12.43;11.33;;;;;;;20.64;100.00;66377.53;5111961;28;20216;-74
2022/06/24 03:40:20;;;;;;;19.80;10.47;;;;;;;20.67;100.00;66378.81;5114020;28;20197;-74
2022/06/24 03:42:46;;;;;;;12.77;10.53;;;;;;;20.68;100.00;66376.72;5099315;28;20213;-73
2022/06/24 03:45:13;;;;;;;16.67;10.80;;;;;;;20.64;100.00;66375.44;5092768;28;20197;-73
2022/06/24 03:47:39;;;;;;;11.20;10.17;;;;;;;20.61;100.00;66372.09;5093598;28;20185;-73
2022/06/24 03:50:06;;;;;;;11.53;9.83;;;;;;;20.65;100.00;66383.94;5092535;28;20194;-72
2022/06/24 03:52:32;;;;;;;11.83;10.67;;;;;;;20.58;100.00;66368.75;5101151;28;20254;-73
2022/06/24 03:54:59;;;;;;;15.90;10.40;;;;;;;20.57;100.00;66373.47;5113612;28;20188;-73
2022/06/24 03:57:26;;;;;;;26.50;11.53;;;;;;;20.51;100.00;66364.13;5101726;28;20201;-73
2022/06/24 03:59:52;;;;;;;11.63;10.37;;;;;;;20.51;100.00;66364.13;5093217;28;20190;-73
2022/06/24 04:02:21;;;;;;;10.93;10.17;;;;;;;20.54;100.00;66364.81;5077610;28;20217;-73
2022/06/24 04:04:48;;;;;;;18.03;11.87;;;;;;;20.41;100.00;66347.63;5084198;28;20197;-75
2022/06/24 04:07:14;;;;;;;12.10;11.00;;;;;;;20.51;100.00;66366.19;5096741;28;20186;-75
2022/06/24 04:09:41;;;;;;;12.90;11.60;;;;;;;20.46;100.00;66353.25;5096904;28;20247;-74
2022/06/24 04:12:07;;;;;;;12.80;11.47;;;;;;;;;;5096837;28;20671;-74
2022/06/24 04:17:19;;;;;;;12.37;11.37;;;;;;;20.41;100.00;66350.28;5096005;28;20200;-74
2022/06/24 04:19:45;;;;;;;12.73;11.53;;;;;;;20.42;100.00;66356.09;5096488;28;20177;-74
2022/06/24 04:22:11;;;;;;;12.83;11.87;;;;;;;20.32;100.00;66345.47;5078242;28;20218;-74
2022/06/24 04:24:38;;;;;;;11.67;10.97;;;;;;;20.33;100.00;66341.31;5096137;28;20252;-75
2022/06/24 04:27:05;;;;;;;12.50;11.20;;;;;;;20.25;100.00;66332.38;5078623;28;20186;-75
2022/06/24 04:29:31;;;;;;;12.97;11.63;;;;;;;20.14;100.00;66322.72;5078659;28;20202;-75
2022/06/24 04:31:58;;;;;;;12.67;11.50;;;;;;;20.11;100.00;66317.28;5094885;28;20699;-75
2022/06/24 04:34:24;;;;;;;16.43;11.60;;;;;;;20.06;100.00;66309.06;5096062;28;20200;-75
2022/06/24 04:36:51;;;;;;;12.43;11.07;;;;;;;;;;5096131;28;20224;-75
2022/06/24 04:39:17;;;;;;;11.37;10.37;;;;;;;19.98;100.00;66303.31;5114408;28;20699;-74
2022/06/24 04:41:43;;;;;;;10.47;9.87;;;;;;;;;;5102793;28;20725;-74
2022/06/24 04:44:10;;;;;;;11.37;9.60;;;;;;;19.96;100.00;66301.09;5095145;28;20200;-74
2022/06/24 04:46:36;;;;;;;11.40;9.10;;;;;;;19.99;100.00;66304.44;5095523;28;20186;-73
2022/06/24 04:49:03;;;;;;;8.87;8.30;;;;;;;20.01;100.00;66306.13;5095893;28;20190;-73
2022/06/24 04:51:29;;;;;;;10.17;9.37;;;;;;;20.08;100.00;66316.03;5096225;28;20209;-74
2022/06/24 04:53:56;;;;;;;10.50;9.90;;;;;;;;;;5095997;28;20225;-74
2022/06/24 04:56:22;;;;;;;11.77;10.13;;;;;;;20.15;100.00;66323.84;5095704;28;20277;-75
2022/06/24 04:58:48;;;;;;;9.47;8.93;;;;;;;20.09;100.00;66315.06;5095907;28;20227;-73
2022/06/24 05:01:15;;;;;;;10.60;9.83;;;;;;;20.08;100.00;66310.75;5107259;28;20189;-73
2022/06/24 05:03:43;;;;;;;10.40;9.67;;;;;;;;;;5103517;28;20193;-74
2022/06/24 05:06:09;;;;;;;9.00;8.37;;;;;;;20.09;100.00;66315.06;5116486;28;20220;-75
2022/06/24 05:08:36;;;;;;;10.00;8.63;;;;;;;19.99;100.00;66301.81;5115922;28;20177;-75
2022/06/24 05:11:03;;;;;;;8.40;8.07;;;;;;;20.00;100.00;66305.56;5114078;28;20185;-74
2022/06/24 05:13:29;;;;;;;9.80;9.10;;;;;;;19.92;100.00;66293.97;5095224;28;20202;-74
2022/06/24 05:15:58;;;;;;;9.17;8.70;;;;;;;19.97;100.00;66301.66;5094099;28;20593;-74
2022/06/24 05:18:44;;;;;;;11.63;10.03;;;;;;;19.98;100.00;66303.31;5095861;28;20198;-74
2022/06/24 05:21:10;;;;;;;9.30;8.70;;;;;;;20.00;100.00;66305.56;5094521;28;20239;-74
2022/06/24 05:23:37;;;;;;;9.30;8.57;;;;;;;20.06;100.00;66314.91;5077119;28;20216;-75
2022/06/24 05:26:04;;;;;;;12.53;8.03;;;;;;;20.01;100.00;66303.50;5095650;28;20186;-74
2022/06/24 05:28:30;;;;;;;9.17;8.47;;;;;;;20.04;100.00;66310.03;5095258;28;20197;-74
2022/06/24 05:30:57;;;;;;;8.50;8.00;;;;;;;19.97;100.00;66299.56;5095083;28;20551;-75
2022/06/24 05:33:24;;;;;;;10.17;8.00;;;;;;;19.90;100.00;66291.75;5107359;28;20229;-74
2022/06/24 05:35:58;;;;;;;9.57;8.87;;;;;;;19.89;100.00;66298.53;5098182;28;20654;-74
2022/06/24 05:38:25;;;;;;;9.27;8.30;;;;;;;19.91;100.00;66297.56;5111979;28;20188;-74
2022/06/24 05:40:52;;;;;;;8.67;7.90;;;;;;;19.88;100.00;66292.16;5094765;28;20185;-74
2022/06/24 05:43:19;;;;;;;8.27;7.80;;;;;;;20.00;100.00;66305.56;5100598;28;20274;-74
2022/06/24 05:45:46;;;;;;;8.60;8.30;;;;;;;19.91;100.00;66292.31;5114127;28;20184;-74
2022/06/24 05:48:14;;;;;;;9.60;8.83;;;;;;;19.83;100.00;66286.00;5115077;28;20185;-75
2022/06/24 05:50:41;;;;;;;9.63;8.67;;;;;;;19.77;100.00;66283.03;5115466;28;20255;-76
2022/06/24 05:55:59;;;;;;;9.07;8.17;;;;;;;;;;5094644;28;20227;-76
2022/06/24 05:58:27;;;;;;;9.47;9.07;;;;;;;19.79;100.00;66282.66;5094606;28;20616;-76
2022/06/24 06:00:56;;;;;;;8.00;7.70;;;;;;;;;;5104656;28;20553;-75
2022/06/24 06:03:25;;;;;;;9.73;8.73;;;;;;;19.76;100.00;66284.00;5095299;28;20267;-76
2022/06/24 06:05:52;;;;;;;11.93;10.47;;;;;;;19.70;100.00;66277.84;5094532;28;20620;-76
2022/06/24 06:08:19;;;;;;;9.53;9.23;;;;;;;19.71;100.00;66273.69;5094583;28;20201;-77
2022/06/24 06:10:47;;;;;;;8.57;8.03;;;;;;;19.69;100.00;66270.91;5094768;28;20196;-77
2022/06/24 06:13:14;;;;;;;8.20;7.80;;;;;;;19.70;100.00;66277.28;5094120;28;20267;-77
2022/06/24 06:15:42;;;;;;;7.57;7.33;;;;;;;19.71;100.00;66273.69;5094343;28;20200;-77
2022/06/24 06:18:08;;;;;;;8.30;7.80;;;;;;;19.70;100.00;66272.59;5075575;28;20288;-77
2022/06/24 06:20:35;;;;;;;10.20;9.37;;;;;;;19.81;100.00;66286.97;5093838;28;20190;-77
2022/06/24 06:23:02;;;;;;;9.17;8.53;;;;;;;19.76;100.00;66276.09;5093649;28;20244;-77
2022/06/24 06:25:28;;;;;;;8.90;8.47;;;;;;;19.76;100.00;66279.28;5094248;28;20205;-77
2022/06/24 06:27:55;;;;;;;9.17;8.87;;;;;;;19.73;100.00;66278.59;5094651;28;20220;-77
2022/06/24 06:30:21;;;;;;;11.33;10.17;;;;;;;19.78;100.00;66283.59;5094066;28;20197;-77
2022/06/24 06:32:48;;;;;;;9.30;9.00;;;;;;;19.77;100.00;66280.41;5107705;28;20224;-77
2022/06/24 06:35:14;;;;;;;10.03;9.50;;;;;;;19.77;100.00;66277.78;5109493;28;20197;-77
2022/06/24 06:37:41;;;;;;;11.53;10.83;;;;;;;19.83;100.00;66286.56;5114835;28;20229;-77
2022/06/24 06:40:07;;;;;;;12.40;11.57;;;;;;;19.82;100.00;66284.88;5114813;28;20242;-77
2022/06/24 06:42:34;;;;;;;14.13;12.90;;;;;;;;;;5112334;28;20209;-77
2022/06/24 06:45:01;;;;;;;11.03;10.40;;;;;;;19.76;100.00;66276.09;5114730;28;20196;-78
2022/06/24 06:47:28;;;;;;;11.20;10.60;;;;;;;19.77;100.00;66277.78;5094651;28;20189;-77
2022/06/24 06:49:54;;;;;;;12.90;12.20;;;;;;;19.78;100.00;66297.34;5093667;28;20243;-77
2022/06/24 06:52:21;;;;;;;12.80;11.60;;;;;;;19.78;100.00;66280.97;5093583;28;20687;-77
2022/06/24 06:54:47;;;;;;;11.53;10.63;;;;;;;19.78;100.00;66281.53;5094013;28;20284;-77
2022/06/24 06:57:14;;;;;;;12.77;11.93;;;;;;;;;;5092461;28;20193;-79
2022/06/24 06:59:40;;;;;;;12.33;11.60;;;;;;;19.83;100.00;66286.56;5094226;28;20197;-77
2022/06/24 07:02:07;;;;;;;16.80;13.73;;;;;;;19.75;100.00;66278.19;5081480;28;20205;-77
2022/06/24 07:04:33;;;;;;;14.80;13.67;;;;;;;19.79;100.00;66285.28;5109236;28;20234;-77
2022/06/24 07:07:00;;;;;;;15.40;14.13;;;;;;;19.76;100.00;66279.28;5098519;28;20194;-78
2022/06/24 07:09:26;;;;;;;12.47;11.77;;;;;;;19.83;100.00;66286.56;5094183;28;20190;-78
2022/06/24 07:11:53;;;;;;;14.57;13.33;;;;;;;19.88;100.00;66292.16;5102601;28;20213;-78
2022/06/24 07:14:20;;;;;;;14.00;12.70;;;;;;;19.83;100.00;66283.94;5112889;28;20204;-77
2022/06/24 07:16:46;;;;;;;12.77;11.77;;;;;;;19.83;100.00;66283.38;5106704;28;20195;-77
2022/06/24 07:19:13;;;;;;;14.70;13.37;;;;;;;19.78;100.00;66283.59;5092508;28;20651;-77
2022/06/24 07:21:39;;;;;;;13.43;12.43;;;;;;;19.74;100.00;66277.06;5093935;28;20236;-77
2022/06/24 07:24:06;;;;;;;11.77;11.10;;;;;;;19.61;100.00;66264.63;5094412;28;20171;-78
2022/06/24 07:26:32;;;;;;;9.67;9.37;;;;;;;19.36;100.00;66240.41;5105631;28;20216;-78
2022/06/24 07:28:59;;;;;;;8.87;7.90;;;;;;;;;;5114418;28;20246;-78
2022/06/24 07:31:25;;;;;;;9.40;8.97;;;;;;;;;;5109514;28;20194;-78
2022/06/24 07:33:52;;;;;;;8.93;8.43;;;;;;;18.47;100.00;66142.13;5102346;28;20199;-78
2022/06/24 07:36:18;;;;;;;8.57;8.27;;;;;;;18.32;100.00;66131.75;5095447;28;20186;-78
2022/06/24 07:38:44;;;;;;;6.23;5.87;;;;;;;18.12;100.00;66104.19;5095506;28;20200;-78
2022/06/24 07:41:12;;;;;;;5.50;5.23;;;;;;;17.83;100.00;66069.75;5097747;28;20193;-77
2022/06/24 07:43:39;;;;;;;4.60;4.40;;;;;;;17.70;100.00;66057.84;5098429;28;20182;-77
2022/06/24 07:46:08;;;;;;;4.50;4.50;;;;;;;17.71;100.00;66056.34;5102870;28;20185;-78
2022/06/24 07:48:35;;;;;;;4.60;4.50;;;;;;;17.77;100.00;66068.88;5103793;28;20177;-77
2022/06/24 07:51:14;;;;;;;6.00;3.90;;;;;;;17.74;100.00;66067.59;5106022;28;20196;-78
2022/06/24 07:53:42;;;;;;;4.00;3.80;;;;;;;17.63;100.00;66044.78;5104931;28;20201;-77
2022/06/24 07:59:00;;;;;;;3.70;3.50;;;;;;;17.67;100.00;66055.06;5111762;28;20185;-77
2022/06/24 08:01:27;;;;;;;3.40;3.20;;;;;;;17.63;100.00;66042.16;5100441;28;20251;-78
2022/06/24 08:03:53;;;;;;;3.03;2.93;;;;;;;17.59;100.00;66040.91;5117267;28;20185;-78
2022/06/24 08:06:20;;;;;;;2.97;2.90;;;;;;;17.62;100.00;66046.84;5118428;28;20189;-78
2022/06/24 08:08:47;;;;;;;2.90;2.90;;;;;;;;;;5110708;28;20196;-77
2022/06/24 08:11:13;;;;;;;2.63;2.63;;;;;;;17.47;100.00;66030.69;5115185;28;20219;-78
2022/06/24 08:13:40;;;;;;;3.63;3.33;;;;;;;17.53;100.00;66034.75;5103024;28;20205;-77
2022/06/24 08:16:07;;;;;;;3.47;3.17;;;;;;;17.49;100.00;66034.97;5103859;28;20185;-78
2022/06/24 08:18:34;;;;;;;3.33;3.10;;;;;;;17.60;100.00;66049.88;5079667;28;20197;-77
2022/06/24 08:21:00;;;;;;;2.87;2.87;;;;;;;17.57;100.00;66041.84;5105643;28;20193;-77
2022/06/24 08:23:27;;;;;;;3.50;3.30;;;;;;;17.62;100.00;66044.22;5099401;28;20210;-77
2022/06/24 08:25:53;;;;;;;9.70;3.73;;;;;;;17.58;100.00;66040.34;5096372;28;20198;-77
2022/06/24 08:28:20;;;;;;;3.77;3.60;;;;;;;17.51;100.00;66029.91;5096858;28;20190;-77
2022/06/24 08:30:49;;;;;;;5.40;4.13;;;;;;;17.56;100.00;66043.34;5095478;28;20194;-77
2022/06/24 08:33:16;;;;;;;4.80;4.37;;;;;;;;;;5097291;28;20205;-77
2022/06/24 08:35:42;;;;;;;4.20;3.50;;;;;;;17.54;100.00;66033.25;5096794;28;20194;-78
2022/06/24 08:38:09;;;;;;;2.87;2.87;;;;;;;17.46;100.00;66026.41;5106380;28;20750;-77
2022/06/24 08:40:35;;;;;;;2.97;2.87;;;;;;;17.55;100.00;66036.44;5104216;28;20197;-77
2022/06/24 08:43:02;;;;;;;3.40;3.40;;;;;;;;;;5115966;28;20208;-77
2022/06/24 08:45:28;;;;;;;2.37;2.37;;;;;;;17.74;100.00;66062.91;5100051;28;20594;-77
2022/06/24 08:47:55;;;;;;;2.17;2.17;;;;;;;17.69;100.00;66052.03;5103595;28;20181;-77
2022/06/24 08:50:23;;;;;;;5.47;2.40;;;;;;;;;;5095737;28;20235;-77
2022/06/24 08:52:53;;;;;;;2.70;2.70;;;;;;;17.57;100.00;66041.28;5096307;28;20209;-77
2022/06/24 08:55:23;;;;;;;2.80;2.57;;;;;;;;;;5104368;28;20239;-78
2022/06/24 08:57:50;;;;;;;2.47;2.27;;;;;;;17.58;100.00;66042.97;5111902;28;20189;-78
2022/06/24 09:00:18;;;;;;;2.70;2.70;;;;;;;17.51;100.00;66039.84;5111874;28;21303;-78
2022/06/24 09:02:46;;;;;;;2.90;2.90;;;;;;;17.48;100.00;66031.81;5106436;28;20213;-77
2022/06/24 09:05:14;;;;;;;3.67;3.47;;;;;;;17.46;100.00;66026.94;5096934;28;20196;-77
2022/06/24 09:07:41;;;;;;;3.67;3.67;;;;;;;17.55;100.00;66042.22;5095066;28;20553;-77
2022/06/24 09:10:12;;;;;;;4.00;3.77;;;;;;;17.54;100.00;66035.88;5080001;28;20198;-77
2022/06/24 09:12:41;;;;;;;3.60;3.50;;;;;;;17.54;100.00;66033.25;5095993;28;20255;-76
2022/06/24 09:15:09;;;;;;;4.17;3.97;;;;;;;17.59;100.00;66041.44;5097788;28;20687;-76
2022/06/24 09:17:37;;;;;;;3.10;3.10;;;;;;;17.51;100.00;66037.22;5098092;28;20194;-78
2022/06/24 09:20:16;;;;;;;5.57;3.07;;;;;;;17.47;100.00;66033.31;5102350;28;20298;-77
2022/06/24 09:23:07;;;;;;;5.03;3.57;;;;;;;17.51;100.00;66031.97;5107389;28;20217;-77
2022/06/24 09:26:02;;;;;;;3.30;3.20;;;;;;;17.58;100.00;66039.78;5104790;28;20556;-77
2022/06/24 09:28:31;;;;;;;4.60;4.07;;;;;;;17.62;100.00;66049.47;5115638;28;20180;-77
2022/06/24 09:31:09;;;;;;;3.73;3.73;;;;;;;17.60;100.00;66042.56;5116357;28;20574;-78
2022/06/24 09:33:44;;;;;;;4.47;4.20;;;;;;;17.62;100.00;66044.22;5113759;28;20205;-77
2022/06/24 09:36:11;;;;;;;4.80;4.70;;;;;;;;;;5111190;28;20731;-77
2022/06/24 09:39:00;;;;;;;4.87;4.77;;;;;;;17.66;100.00;66053.41;5115751;28;20177;-77
2022/06/24 09:41:26;;;;;;;4.37;4.33;;;;;;;17.64;100.00;66051.72;5112924;28;20610;-77
2022/06/24 09:43:57;;;;;;;4.60;4.30;;;;;;;17.69;100.00;66054.66;5097913;28;20186;-77
2022/06/24 09:46:24;;;;;;;3.83;3.73;;;;;;;17.69;100.00;66056.72;5098535;28;20198;-77
2022/06/24 09:49:00;;;;;;;4.60;4.17;;;;;;;17.70;100.00;66053.16;5100140;28;20208;-77
2022/06/24 09:51:27;;;;;;;5.07;4.63;;;;;;;17.71;100.00;66051.09;5095313;28;20193;-77
2022/06/24 09:53:54;;;;;;;5.40;5.10;;;;;;;;;;5103728;28;20201;-77
2022/06/24 09:56:22;;;;;;;6.07;5.60;;;;;;;17.76;100.00;66056.69;5103368;28;20225;-77
2022/06/24 10:01:37;;;;;;;8.50;8.00;;;;;;;17.72;100.00;66058.03;5114180;28;20254;-77
2022/06/24 10:04:05;;;;;;;9.67;8.83;;;;;;;17.59;100.00;66043.53;5103705;28;20603;-76
2022/06/24 10:06:35;;;;;;;10.27;8.43;;;;;;;17.66;100.00;66048.69;5102924;28;20224;-76
2022/06/24 10:09:04;;;;;;;11.17;8.83;;;;;;;17.70;100.00;66055.22;5103606;28;20695;-76
2022/06/24 10:11:38;;;;;;;10.20;8.57;;;;;;;17.74;100.00;66055.03;5085632;28;20213;-77
2022/06/24 10:14:04;;;;;;;8.83;8.30;;;;;;;17.87;100.00;66080.03;5095666;28;20715;-76
2022/06/24 10:16:32;;;;;;;8.73;8.17;;;;;;;17.78;100.00;66067.34;5106926;28;20230;-77
2022/06/24 10:19:00;;;;;;;10.67;8.57;;;;;;;17.81;100.00;66062.81;5114945;28;20189;-77
2022/06/24 10:21:28;;;;;;;9.57;8.53;;;;;;;17.79;100.00;66068.47;5096937;28;20563;-77
2022/06/24 10:23:56;;;;;;;9.47;8.90;;;;;;;17.93;100.00;66077.72;5091333;28;20185;-77
2022/06/24 10:26:30;;;;;;;14.47;10.70;;;;;;;18.02;100.00;66085.69;5094062;28;20196;-77
2022/06/24 10:29:00;;;;;;;11.00;10.10;;;;;;;18.09;100.00;66096.13;5092848;28;20581;-77
2022/06/24 10:31:41;;;;;;;16.47;12.33;;;;;;;;;;5093951;28;20264;-77
2022/06/24 10:34:09;;;;;;;13.50;10.97;;;;;;;18.31;100.00;66116.94;5092810;28;20560;-77
2022/06/24 10:36:36;;;;;;;12.73;11.50;;;;;;;18.42;100.00;66131.84;5094245;28;20200;-77
2022/06/24 10:39:14;;;;;;;9.50;8.90;;;;;;;18.42;100.00;66134.47;5094288;28;20228;-77
2022/06/24 10:41:41;;;;;;;14.00;10.10;;;;;;;18.50;100.00;66142.84;5094269;28;20691;-77
2022/06/24 10:44:22;;;;;;;13.53;12.20;;;;;;;18.87;100.00;66178.91;5093416;28;20178;-76
2022/06/24 10:47:04;;;;;;;13.67;12.50;;;;;;;18.96;100.00;66191.03;5101913;28;20192;-76
2022/06/24 10:49:55;;;;;;;12.27;10.97;;;;;;;19.03;100.00;66204.13;5102829;28;20196;-77
2022/06/24 10:52:32;;;;;;;17.27;13.30;;;;;;;;;;5108604;28;20247;-78
2022/06/24 10:55:17;;;;;;;12.37;11.10;;;;;;;19.32;100.00;66230.13;5097983;28;20208;-76
2022/06/24 10:57:51;;;;;;;13.83;12.33;;;;;;;;;;5099254;28;20196;-76
2022/06/24 11:00:50;;;;;;;14.33;12.67;;;;;;;19.44;100.00;66243.53;5092945;28;20197;-76
2022/06/24 11:03:27;;;;;;;18.33;16.43;;;;;;;19.55;100.00;66255.81;5092940;28;20304;-75
2022/06/24 11:05:54;;;;;;;32.07;20.43;;;;;;;19.60;100.00;66260.88;5093298;28;20200;-77
2022/06/24 11:08:23;;;;;;;25.23;19.60;;;;;;;19.71;100.00;66273.16;5093763;28;20174;-77
2022/06/24 11:10:49;;;;;;;28.77;21.73;;;;;;;;;;5093299;28;20182;-77
2022/06/24 11:13:17;;;;;;;25.50;22.17;;;;;;;19.73;100.00;66267.50;5093244;28;20726;-77
2022/06/24 11:15:47;;;;;;;25.53;20.27;;;;;;;19.78;100.00;66280.97;5101493;28;20212;-76
2022/06/24 11:18:17;;;;;;;27.43;20.77;;;;;;;19.80;100.00;66283.22;5111044;28;20177;-76
2022/06/24 11:20:48;;;;;;;27.43;21.63;;;;;;;19.87;100.00;66287.84;5098757;28;20227;-76
2022/06/24 11:23:17;;;;;;;23.93;20.67;;;;;;;19.92;100.00;66296.59;5094083;28;20274;-76
2022/06/24 11:25:58;;;;;;;28.07;20.47;;;;;;;20.07;100.00;66312.81;5095932;28;20668;-76
2022/06/24 11:28:27;;;;;;;21.23;18.97;;;;;;;20.15;100.00;66321.78;5100459;28;20550;-77
2022/06/24 11:30:56;;;;;;;19.33;17.57;;;;;;;20.39;100.00;66348.03;5093336;28;20186;-77
2022/06/24 11:33:23;;;;;;;18.27;16.53;;;;;;;20.43;100.00;66349.31;5104291;28;20230;-77
2022/06/24 11:35:50;;;;;;;15.50;14.33;;;;;;;;;;5093374;28;20225;-76
2022/06/24 11:38:22;;;;;;;16.30;14.90;;;;;;;20.33;100.00;66341.31;5093453;28;20204;-74
2022/06/24 11:40:49;;;;;;;15.23;14.20;;;;;;;20.34;100.00;66345.06;5095484;28;20706;-76
2022/06/24 11:43:16;;;;;;;15.30;14.20;;;;;;;20.37;100.00;66345.81;5098184;28;20209;-76
2022/06/24 11:45:46;;;;;;;15.70;14.40;;;;;;;;;;5093099;28;20181;-75
2022/06/24 11:48:22;;;;;;;15.87;14.33;;;;;;;20.40;100.00;66348.59;5091540;28;20197;-77
2022/06/24 11:50:53;;;;;;;16.40;14.60;;;;;;;20.33;100.00;66339.25;5099201;28;20201;-76
2022/06/24 11:53:24;;;;;;;15.90;14.73;;;;;;;20.28;100.00;66333.09;5095999;28;20289;-76
2022/06/24 11:55:53;;;;;;;15.87;14.77;;;;;;;;;;5098792;28;20280;-76
2022/06/24 11:58:21;;;;;;;15.90;14.77;;;;;;;20.29;100.00;66337.44;5102169;28;20220;-76